Hamilton, New York
Current Conditions -  °F | °C
As of 6:53 AM on Tuesday 27 Jan 2015 (Local Time) from KRME Reporting Station
Clear Clear  
Wind Chill: -4°   Ceiling: Unl
Heat Index:   Visibility: 10mi
Dew Point: -2°   Wind: 8mph
Humidity: 64%   Direction: 330°NNW
Pressure: 29.89"   Gusts: NA
Location:  42.83°N, 75.54°W
Report Text: KRME 271153Z AUTO 33007KT 10SM CLR M13/M19 A2989 RMK AO2 SLP131 T11331189 11094 21133 55002
Loading
Personal Weather Stations






























Interactive Weather Map New forecast layout! Learn more

10-Day Weather Forecast

Advertisements
Track Severe Weather on mobile